PWSweather.com
Personal Weather Stations
Station Observations
KMAMEDFI2
Medfield, MA 02052

Medfield, MA 02052

Lat: 42.1900822, Lon: -71.3296889

Elevation: 138

Station Type: Rainwise WS MK-III

http://www.medfieldweather.com

High Low Average
Temperature 56.8°F13.8°C 40.9°F4.9°C 49.0°F9.4°C
Dew Point 56.0°F13.3°C 28.7°F-1.8°C 42.2°F5.7°C
Winds 5.8 mph 9.3 kmh Calm Calm 2.0 mph S3.2 kmh S
Wind Gusts 11.5 mph18.5 kmh -- 4.0 mph6.4 kmh
Humidity 97% 49% 79%
Pressure 30.36 in1028.1 mb 30.15 in1021.0 mb -
Precipitation 0.10 in2.5 mm - -
Hour Temp Dew Point Humidity Winds Wind Gusts Pressure Precip Precip Rate Daily Precip Total
07:00 AM 42.9°F6.1°C 28.7°F-1.8°C 57% Calm Calm -- 30.30 in1026.1 mb - 0.00 in0.0 mm 0.00 in0.0 mm
07:10 AM 42.9°F6.1°C 28.7°F-1.8°C 57% Calm Calm -- 30.30 in1026.1 mb - 0.00 in0.0 mm 0.00 in0.0 mm
07:20 AM 40.9°F4.9°C 37.9°F3.3°C 89% Calm Calm -- 30.33 in1027.1 mb - 0.00 in0.0 mm 0.00 in0.0 mm
07:30 AM 41.2°F5.1°C 37.9°F3.3°C 88% Calm Calm -- 30.33 in1027.1 mb - 0.00 in0.0 mm 0.00 in0.0 mm
07:40 AM 41.6°F5.3°C 38.3°F3.5°C 88% Calm Calm -- 30.33 in1027.1 mb - 0.00 in0.0 mm 0.00 in0.0 mm
07:50 AM 41.9°F5.5°C 38.3°F3.5°C 87% Calm Calm -- 30.33 in1027.1 mb - 0.00 in0.0 mm 0.00 in0.0 mm
08:00 AM 42.4°F5.8°C 38.5°F3.6°C 86% Calm Calm -- 30.34 in1027.4 mb - 0.00 in0.0 mm 0.00 in0.0 mm
08:10 AM 42.8°F6.0°C 38.6°F3.7°C 85% Calm Calm -- 30.34 in1027.4 mb - 0.00 in0.0 mm 0.00 in0.0 mm
08:20 AM 43.3°F6.3°C 37.8°F3.2°C 81% 1.2 mph SSE1.9 kmh SSE 2.3 mph3.7 kmh 30.34 in1027.4 mb - 0.00 in0.0 mm 0.00 in0.0 mm
08:30 AM 43.8°F6.6°C 37.4°F3.0°C 78% 2.3 mph S3.7 kmh S 2.3 mph3.7 kmh 30.34 in1027.4 mb - 0.00 in0.0 mm 0.00 in0.0 mm
08:40 AM 44.3°F6.8°C 37.2°F2.9°C 76% 1.2 mph S1.9 kmh S 2.3 mph3.7 kmh 30.34 in1027.4 mb - 0.00 in0.0 mm 0.00 in0.0 mm
08:50 AM 44.6°F7.0°C 37.2°F2.9°C 75% 1.2 mph SSW1.9 kmh SSW 2.3 mph3.7 kmh 30.35 in1027.8 mb - 0.00 in0.0 mm 0.00 in0.0 mm
09:00 AM 44.9°F7.2°C 37.1°F2.8°C 74% 2.3 mph S3.7 kmh S 2.3 mph3.7 kmh 30.35 in1027.8 mb - 0.00 in0.0 mm 0.00 in0.0 mm
09:10 AM 45.1°F7.3°C 37.0°F2.8°C 73% Calm Calm 2.3 mph3.7 kmh 30.35 in1027.8 mb - 0.00 in0.0 mm 0.00 in0.0 mm
09:20 AM 45.3°F7.4°C 36.8°F2.7°C 72% 2.3 mph SSE3.7 kmh SSE 2.3 mph3.7 kmh 30.35 in1027.8 mb - 0.00 in0.0 mm 0.00 in0.0 mm
09:30 AM 45.5°F7.5°C 36.6°F2.6°C 71% 1.2 mph SE1.9 kmh SE 3.5 mph5.6 kmh 30.35 in1027.8 mb - 0.00 in0.0 mm 0.00 in0.0 mm
09:40 AM 45.6°F7.6°C 37.1°F2.8°C 72% 2.3 mph SE3.7 kmh SE 5.8 mph9.3 kmh 30.35 in1027.8 mb - 0.00 in0.0 mm 0.00 in0.0 mm
09:50 AM 45.5°F7.5°C 37.4°F3.0°C 73% 2.3 mph S3.7 kmh S 2.3 mph3.7 kmh 30.36 in1028.1 mb - 0.00 in0.0 mm 0.00 in0.0 mm
10:00 AM 45.6°F7.6°C 37.1°F2.8°C 72% 2.3 mph S3.7 kmh S 2.3 mph3.7 kmh 30.35 in1027.8 mb - 0.00 in0.0 mm 0.00 in0.0 mm
10:10 AM 45.8°F7.7°C 36.9°F2.7°C 71% 2.3 mph S3.7 kmh S 2.3 mph3.7 kmh 30.35 in1027.8 mb - 0.00 in0.0 mm 0.00 in0.0 mm
10:20 AM 45.9°F7.7°C 36.7°F2.6°C 70% 2.3 mph SSE3.7 kmh SSE 2.3 mph3.7 kmh 30.35 in1027.8 mb - 0.00 in0.0 mm 0.00 in0.0 mm
10:30 AM 46.2°F7.9°C 37.0°F2.8°C 70% 2.3 mph SE3.7 kmh SE 2.3 mph3.7 kmh 30.35 in1027.8 mb - 0.00 in0.0 mm 0.00 in0.0 mm
10:40 AM 46.5°F8.1°C 35.7°F2.1°C 66% 3.5 mph SSW5.6 kmh SSW 3.5 mph5.6 kmh 30.35 in1027.8 mb - 0.00 in0.0 mm 0.00 in0.0 mm
10:50 AM 46.8°F8.2°C 36.4°F2.4°C 67% 1.2 mph S1.9 kmh S 2.3 mph3.7 kmh 30.35 in1027.8 mb - 0.00 in0.0 mm 0.00 in0.0 mm
11:00 AM 47.3°F8.5°C 36.1°F2.3°C 65% 2.3 mph SW3.7 kmh SW 2.3 mph3.7 kmh 30.35 in1027.8 mb - 0.00 in0.0 mm 0.00 in0.0 mm
11:10 AM 47.8°F8.8°C 35.8°F2.1°C 63% 2.3 mph ESE3.7 kmh ESE 2.3 mph3.7 kmh 30.35 in1027.8 mb - 0.00 in0.0 mm 0.00 in0.0 mm
11:20 AM 48.2°F9.0°C 35.8°F2.1°C 62% 2.3 mph SSE3.7 kmh SSE 2.3 mph3.7 kmh 30.35 in1027.8 mb - 0.00 in0.0 mm 0.00 in0.0 mm
11:30 AM 48.5°F9.2°C 36.5°F2.5°C 63% 2.3 mph S3.7 kmh S 5.8 mph9.3 kmh 30.35 in1027.8 mb - 0.00 in0.0 mm 0.00 in0.0 mm
11:40 AM 48.5°F9.2°C 36.9°F2.7°C 64% 2.3 mph S3.7 kmh S 2.3 mph3.7 kmh 30.35 in1027.8 mb - 0.00 in0.0 mm 0.00 in0.0 mm
11:50 AM 48.7°F9.3°C 36.7°F2.6°C 63% 3.5 mph S5.6 kmh S 6.9 mph11.1 kmh 30.35 in1027.8 mb - 0.00 in0.0 mm 0.00 in0.0 mm
12:00 PM 48.7°F9.3°C 36.3°F2.4°C 62% 3.5 mph S5.6 kmh S 5.8 mph9.3 kmh 30.35 in1027.8 mb - 0.00 in0.0 mm 0.00 in0.0 mm
12:10 PM 48.7°F9.3°C 37.1°F2.8°C 64% 2.3 mph SSE3.7 kmh SSE 2.3 mph3.7 kmh 30.35 in1027.8 mb - 0.00 in0.0 mm 0.00 in0.0 mm
12:20 PM 48.7°F9.3°C 37.4°F3.0°C 65% 1.2 mph SE1.9 kmh SE 3.5 mph5.6 kmh 30.34 in1027.4 mb - 0.00 in0.0 mm 0.00 in0.0 mm
12:30 PM 48.8°F9.3°C 37.6°F3.1°C 65% 3.5 mph SE5.6 kmh SE 2.3 mph3.7 kmh 30.34 in1027.4 mb - 0.00 in0.0 mm 0.00 in0.0 mm
12:40 PM 49.1°F9.5°C 37.5°F3.1°C 64% 3.5 mph SSE5.6 kmh SSE 5.8 mph9.3 kmh 30.34 in1027.4 mb - 0.00 in0.0 mm 0.00 in0.0 mm
12:50 PM 49.0°F9.4°C 38.1°F3.4°C 66% 1.2 mph ESE1.9 kmh ESE 2.3 mph3.7 kmh 30.34 in1027.4 mb - 0.00 in0.0 mm 0.00 in0.0 mm
01:00 PM 48.9°F9.4°C 37.6°F3.1°C 65% 3.5 mph SSE5.6 kmh SSE 5.8 mph9.3 kmh 30.34 in1027.4 mb - 0.00 in0.0 mm 0.00 in0.0 mm
01:10 PM 49.3°F9.6°C 38.4°F3.6°C 66% 2.3 mph SE3.7 kmh SE 2.3 mph3.7 kmh 30.33 in1027.1 mb - 0.00 in0.0 mm 0.00 in0.0 mm
01:20 PM 49.5°F9.7°C 37.8°F3.2°C 64% 4.6 mph SSW7.4 kmh SSW 8.1 mph13.0 kmh 30.33 in1027.1 mb - 0.00 in0.0 mm 0.00 in0.0 mm
01:30 PM 49.9°F9.9°C 38.2°F3.4°C 64% 2.3 mph S3.7 kmh S 8.1 mph13.0 kmh 30.33 in1027.1 mb - 0.00 in0.0 mm 0.00 in0.0 mm
01:40 PM 50.5°F10.3°C 36.7°F2.6°C 59% 4.6 mph SE7.4 kmh SE 9.2 mph14.8 kmh 30.33 in1027.1 mb - 0.00 in0.0 mm 0.00 in0.0 mm
01:50 PM 50.7°F10.4°C 36.5°F2.5°C 58% 3.5 mph S5.6 kmh S 6.9 mph11.1 kmh 30.33 in1027.1 mb - 0.00 in0.0 mm 0.00 in0.0 mm
02:00 PM 50.8°F10.4°C 36.1°F2.3°C 57% 4.6 mph S7.4 kmh S 11.5 mph18.5 kmh 30.32 in1026.8 mb - 0.00 in0.0 mm 0.00 in0.0 mm
02:10 PM 51.1°F10.6°C 35.5°F1.9°C 55% 3.5 mph SSW5.6 kmh SSW 11.5 mph18.5 kmh 30.33 in1027.1 mb - 0.00 in0.0 mm 0.00 in0.0 mm
02:20 PM 51.4°F10.8°C 34.3°F1.3°C 52% 5.8 mph SW9.3 kmh SW 10.4 mph16.7 kmh 30.32 in1026.8 mb - 0.00 in0.0 mm 0.00 in0.0 mm
02:30 PM 51.3°F10.7°C 34.3°F1.3°C 52% 4.6 mph SE7.4 kmh SE 8.1 mph13.0 kmh 30.32 in1026.8 mb - 0.00 in0.0 mm 0.00 in0.0 mm
02:40 PM 51.1°F10.6°C 34.1°F1.2°C 52% 3.5 mph SSE5.6 kmh SSE 3.5 mph5.6 kmh 30.32 in1026.8 mb - 0.00 in0.0 mm 0.00 in0.0 mm
02:50 PM 50.9°F10.5°C 32.4°F0.2°C 49% 3.5 mph S5.6 kmh S 8.1 mph13.0 kmh 30.31 in1026.4 mb - 0.00 in0.0 mm 0.00 in0.0 mm
03:00 PM 50.9°F10.5°C 32.9°F0.5°C 50% 4.6 mph SE7.4 kmh SE 5.8 mph9.3 kmh 30.31 in1026.4 mb - 0.00 in0.0 mm 0.00 in0.0 mm
03:10 PM 50.7°F10.4°C 32.7°F0.4°C 50% 4.6 mph S7.4 kmh S 5.8 mph9.3 kmh 30.30 in1026.1 mb - 0.00 in0.0 mm 0.00 in0.0 mm
03:20 PM 50.8°F10.4°C 33.8°F1.0°C 52% 2.3 mph SSW3.7 kmh SSW 8.1 mph13.0 kmh 30.29 in1025.7 mb - 0.00 in0.0 mm 0.00 in0.0 mm
03:30 PM 50.9°F10.5°C 34.4°F1.3°C 53% 4.6 mph SSE7.4 kmh SSE 9.2 mph14.8 kmh 30.29 in1025.7 mb - 0.00 in0.0 mm 0.00 in0.0 mm
03:40 PM 50.9°F10.5°C 35.7°F2.1°C 56% 3.5 mph SE5.6 kmh SE 2.3 mph3.7 kmh 30.28 in1025.4 mb - 0.00 in0.0 mm 0.00 in0.0 mm
03:50 PM 51.3°F10.7°C 37.4°F3.0°C 59% 4.6 mph SE7.4 kmh SE 6.9 mph11.1 kmh 30.27 in1025.1 mb - 0.00 in0.0 mm 0.00 in0.0 mm
04:00 PM 51.6°F10.9°C 38.6°F3.7°C 61% 3.5 mph S5.6 kmh S 5.8 mph9.3 kmh 30.27 in1025.1 mb - 0.00 in0.0 mm 0.00 in0.0 mm
04:10 PM 51.3°F10.7°C 39.1°F3.9°C 63% 3.5 mph S5.6 kmh S 3.5 mph5.6 kmh 30.27 in1025.1 mb - 0.00 in0.0 mm 0.00 in0.0 mm
04:20 PM 51.0°F10.6°C 40.4°F4.7°C 67% 3.5 mph SSE5.6 kmh SSE 3.5 mph5.6 kmh 30.26 in1024.7 mb - 0.00 in0.0 mm 0.00 in0.0 mm
04:30 PM 51.0°F10.6°C 41.6°F5.3°C 70% 3.5 mph SSE5.6 kmh SSE 2.3 mph3.7 kmh 30.26 in1024.7 mb - 0.00 in0.0 mm 0.00 in0.0 mm
04:40 PM 50.9°F10.5°C 43.3°F6.3°C 75% 5.8 mph S9.3 kmh S 8.1 mph13.0 kmh 30.26 in1024.7 mb - 0.00 in0.0 mm 0.00 in0.0 mm
04:50 PM 50.7°F10.4°C 44.1°F6.7°C 78% 3.5 mph SSW5.6 kmh SSW 3.5 mph5.6 kmh 30.25 in1024.4 mb - 0.00 in0.0 mm 0.00 in0.0 mm
05:00 PM 50.4°F10.2°C 45.1°F7.3°C 82% 5.8 mph SW9.3 kmh SW 9.2 mph14.8 kmh 30.25 in1024.4 mb - 0.00 in0.0 mm 0.00 in0.0 mm
05:10 PM 49.8°F9.9°C 45.2°F7.3°C 84% 3.5 mph S5.6 kmh S 2.3 mph3.7 kmh 30.25 in1024.4 mb - 0.00 in0.0 mm 0.00 in0.0 mm
05:20 PM 49.7°F9.8°C 45.7°F7.6°C 86% 3.5 mph ESE5.6 kmh ESE 5.8 mph9.3 kmh 30.25 in1024.4 mb - 0.00 in0.0 mm 0.00 in0.0 mm
05:30 PM 49.6°F9.8°C 46.2°F7.9°C 88% 2.3 mph SSW3.7 kmh SSW 2.3 mph3.7 kmh 30.24 in1024.0 mb - 0.00 in0.0 mm 0.00 in0.0 mm
05:40 PM 49.6°F9.8°C 46.5°F8.1°C 89% 3.5 mph SE5.6 kmh SE 2.3 mph3.7 kmh 30.25 in1024.4 mb - 0.00 in0.0 mm 0.00 in0.0 mm
05:50 PM 49.5°F9.7°C 46.4°F8.0°C 89% 2.3 mph SE3.7 kmh SE 9.2 mph14.8 kmh 30.23 in1023.7 mb - 0.00 in0.0 mm 0.00 in0.0 mm
06:00 PM 49.3°F9.6°C 46.5°F8.1°C 90% 2.3 mph SE3.7 kmh SE 5.8 mph9.3 kmh 30.23 in1023.7 mb - 0.00 in0.0 mm 0.00 in0.0 mm
06:10 PM 49.2°F9.6°C 46.7°F8.2°C 91% 2.3 mph SSW3.7 kmh SSW 2.3 mph3.7 kmh 30.23 in1023.7 mb - 0.00 in0.0 mm 0.00 in0.0 mm
06:20 PM 49.1°F9.5°C 46.6°F8.1°C 91% 3.5 mph S5.6 kmh S 2.3 mph3.7 kmh 30.23 in1023.7 mb - 0.00 in0.0 mm 0.00 in0.0 mm
06:30 PM 49.2°F9.6°C 46.9°F8.3°C 92% 2.3 mph SSE3.7 kmh SSE 3.5 mph5.6 kmh 30.23 in1023.7 mb - 0.00 in0.0 mm 0.00 in0.0 mm
06:40 PM 49.2°F9.6°C 47.0°F8.3°C 92% 3.5 mph SW5.6 kmh SW 5.8 mph9.3 kmh 30.23 in1023.7 mb - 0.00 in0.0 mm 0.00 in0.0 mm
06:50 PM 49.2°F9.6°C 47.0°F8.3°C 92% 2.3 mph WSW3.7 kmh WSW 2.3 mph3.7 kmh 30.23 in1023.7 mb - 0.00 in0.0 mm 0.00 in0.0 mm
07:00 PM 49.2°F9.6°C 47.2°F8.4°C 93% 2.3 mph SE3.7 kmh SE 2.3 mph3.7 kmh 30.23 in1023.7 mb - 0.00 in0.0 mm 0.00 in0.0 mm
07:10 PM 49.1°F9.5°C 47.2°F8.4°C 93% 2.3 mph SSE3.7 kmh SSE 2.3 mph3.7 kmh 30.23 in1023.7 mb - 0.00 in0.0 mm 0.00 in0.0 mm
07:20 PM 49.0°F9.4°C 47.3°F8.5°C 94% Calm Calm 2.3 mph3.7 kmh 30.23 in1023.7 mb - 0.00 in0.0 mm 0.00 in0.0 mm
07:30 PM 48.9°F9.4°C 47.5°F8.6°C 95% 2.3 mph SSE3.7 kmh SSE 2.3 mph3.7 kmh 30.22 in1023.4 mb - 0.00 in0.0 mm 0.00 in0.0 mm
07:40 PM 48.9°F9.4°C 47.8°F8.8°C 96% 2.3 mph SSW3.7 kmh SSW 2.3 mph3.7 kmh 30.22 in1023.4 mb - 0.00 in0.0 mm 0.00 in0.0 mm
07:50 PM 48.9°F9.4°C 47.8°F8.8°C 96% Calm Calm 1.2 mph1.9 kmh 30.21 in1023.0 mb - 0.00 in0.0 mm 0.00 in0.0 mm
08:00 PM 48.9°F9.4°C 47.8°F8.8°C 96% 1.2 mph SSE1.9 kmh SSE -- 30.21 in1023.0 mb - 0.00 in0.0 mm 0.00 in0.0 mm
08:10 PM 49.0°F9.4°C 48.2°F9.0°C 97% 2.3 mph S3.7 kmh S 5.8 mph9.3 kmh 30.21 in1023.0 mb - 0.00 in0.0 mm 0.00 in0.0 mm
08:20 PM 49.1°F9.5°C 48.3°F9.1°C 97% Calm Calm -- 30.20 in1022.7 mb - 0.00 in0.0 mm 0.00 in0.0 mm
08:30 PM 49.2°F9.6°C 48.4°F9.1°C 97% 1.2 mph S1.9 kmh S 1.2 mph1.9 kmh 30.20 in1022.7 mb - 0.00 in0.0 mm 0.00 in0.0 mm
08:40 PM 49.3°F9.6°C 48.5°F9.2°C 97% 2.3 mph SSW3.7 kmh SSW 2.3 mph3.7 kmh 30.20 in1022.7 mb - 0.00 in0.0 mm 0.00 in0.0 mm
08:50 PM 49.5°F9.7°C 48.7°F9.3°C 97% Calm Calm -- 30.21 in1023.0 mb - 0.00 in0.0 mm 0.00 in0.0 mm
09:00 PM 49.7°F9.8°C 48.9°F9.4°C 97% 3.5 mph S5.6 kmh S 2.3 mph3.7 kmh 30.20 in1022.7 mb - 0.00 in0.0 mm 0.00 in0.0 mm
09:10 PM 49.7°F9.8°C 48.9°F9.4°C 97% 1.2 mph SE1.9 kmh SE 2.3 mph3.7 kmh 30.19 in1022.4 mb - 0.00 in0.0 mm 0.00 in0.0 mm
09:20 PM 49.9°F9.9°C 49.1°F9.5°C 97% 3.5 mph SSE5.6 kmh SSE 3.5 mph5.6 kmh 30.19 in1022.4 mb - 0.00 in0.0 mm 0.00 in0.0 mm
09:30 PM 49.9°F9.9°C 49.1°F9.5°C 97% 1.2 mph SE1.9 kmh SE 3.5 mph5.6 kmh 30.19 in1022.4 mb - 0.00 in0.0 mm 0.00 in0.0 mm
09:40 PM 49.9°F9.9°C 49.1°F9.5°C 97% 2.3 mph S3.7 kmh S 2.3 mph3.7 kmh 30.18 in1022.0 mb - 0.00 in0.0 mm 0.00 in0.0 mm
09:50 PM 50.0°F10.0°C 49.2°F9.6°C 97% 1.2 mph SSE1.9 kmh SSE 1.2 mph1.9 kmh 30.18 in1022.0 mb - 0.00 in0.0 mm 0.00 in0.0 mm
10:00 PM 50.1°F10.1°C 49.3°F9.6°C 97% 1.2 mph S1.9 kmh S 1.2 mph1.9 kmh 30.18 in1022.0 mb - 0.00 in0.0 mm 0.00 in0.0 mm
10:10 PM 50.3°F10.2°C 49.5°F9.7°C 97% 2.3 mph S3.7 kmh S 2.3 mph3.7 kmh 30.18 in1022.0 mb - 0.00 in0.0 mm 0.00 in0.0 mm
10:20 PM 50.3°F10.2°C 49.5°F9.7°C 97% Calm Calm 1.2 mph1.9 kmh 30.17 in1021.7 mb - 0.00 in0.0 mm 0.00 in0.0 mm
10:30 PM 50.4°F10.2°C 49.6°F9.8°C 97% 1.2 mph SSW1.9 kmh SSW 2.3 mph3.7 kmh 30.17 in1021.7 mb - 0.00 in0.0 mm 0.00 in0.0 mm
10:40 PM 50.6°F10.3°C 49.8°F9.9°C 97% 1.2 mph SSE1.9 kmh SSE 1.2 mph1.9 kmh 30.17 in1021.7 mb - 0.00 in0.0 mm 0.00 in0.0 mm
10:50 PM 50.7°F10.4°C 49.9°F9.9°C 97% Calm Calm -- 30.17 in1021.7 mb - 0.01 in0.3 mm 0.01 in0.3 mm
11:00 PM 50.8°F10.4°C 50.0°F10.0°C 97% Calm Calm -- 30.17 in1021.7 mb - 0.04 in1.0 mm 0.04 in1.0 mm
11:10 PM 51.3°F10.7°C 50.5°F10.3°C 97% 1.2 mph S1.9 kmh S 5.8 mph9.3 kmh 30.17 in1021.7 mb - 0.05 in1.3 mm 0.05 in1.3 mm
11:20 PM 51.9°F11.1°C 51.1°F10.6°C 97% Calm Calm 2.3 mph3.7 kmh 30.17 in1021.7 mb - 0.07 in1.8 mm 0.07 in1.8 mm
11:30 PM 52.4°F11.3°C 51.6°F10.9°C 97% 4.6 mph S7.4 kmh S 8.1 mph13.0 kmh 30.16 in1021.3 mb - 0.09 in2.3 mm 0.09 in2.3 mm
11:40 PM 52.6°F11.4°C 51.8°F11.0°C 97% Calm Calm 2.3 mph3.7 kmh 30.16 in1021.3 mb - 0.09 in2.3 mm 0.09 in2.3 mm
11:50 PM 52.8°F11.6°C 52.0°F11.1°C 97% 3.5 mph S5.6 kmh S 2.3 mph3.7 kmh 30.15 in1021.0 mb - 0.10 in2.5 mm 0.10 in2.5 mm